Forside
METAR-TAF:

METAR-TAF

Lufthavne :

Blacksburg, Virginia, USA

Breddekreds: 37-13N, længdekreds: 080-25W, højde: 650 m

Aktuelle vejr

Denne rapport blev lavet for 9 minutter siden, kl. 21:15 UTC
Vind 4 kt fra vestnordvest
Temperatur 4°C
Fugtighed 60%
Tryk 1014 hPa
Sigt: 11.3 km
Overskyet i en højde af 3400 ft

METAR: KBCB 262115Z AUTO 29004KT 7SM OVC034 04/M03 A2994 RMK AO2 T00351028

Tid: 16:24 (21:24 UTC)

Vejrudsigter

Denne rapport blev lavet for 3 timer og 49 minutter siden, kl. 17:35 UTC
Foreløbig gælder fra 26 på 18 UTC til 27 på 18 UTC
Vind 10 kt fra vest
Sigt: 10 km
Overskyet i en højde af 2200 ft
Fra 26 på 2300 UTC
Vind 5 kt fra vest
Sigt: 10 km
Spredte skyer i en højde af 4000 ft
Fra 27 på 0600 UTC
Vind 3 kt fra varierende retninger
Sigt: 10 km
Overskyet i en højde af 1800 ft
Fra 27 på 1400 UTC
Vind 3 kt fra varierende retninger
Sigt: 10 km
Overskyet i en højde af 800 ft

TAF: KBCB 261735Z 2618/2718 28010KT P6SM OVC022 FM262300 28005KT P6SM SCT040 FM270600 VRB03KT P6SM OVC018 FM271400 VRB03KT P6SM OVC008

Vejrobservationer og prognoser fra mere end 4000 lufthavne (METAR og TAF).

De gule og røde prikker repræsenterer de meteorologiske stationer.

Flyt musen over at se navnet på stationen.

Så klik over at se vejr observationer og prognoser.

At skifte det kort: Klik på de grønne knapper med et sort kors for at zoome ind; på den grønne knap med en bindestreg for at zoome ud; eller på de grønne pile for tilstødende kort.


METAR-TAF: